createdAt,value
2019-03-22T00:00:11.449Z,99.90
2019-03-22T00:02:40.306Z,99.90
2019-03-22T00:05:09.146Z,99.90
2019-03-22T00:07:38.742Z,99.90
2019-03-22T00:10:07.589Z,99.90
2019-03-22T00:12:36.418Z,99.90
2019-03-22T00:15:06.233Z,99.90
2019-03-22T00:17:35.070Z,99.90
2019-03-22T00:20:04.818Z,99.90
2019-03-22T00:22:33.645Z,99.90
2019-03-22T00:25:02.789Z,99.90
2019-03-22T00:27:31.630Z,99.90
2019-03-22T00:30:00.484Z,99.90
2019-03-22T00:32:29.334Z,99.90
2019-03-22T00:34:58.428Z,99.90
2019-03-22T00:37:27.267Z,99.90
2019-03-22T00:39:56.122Z,99.90
2019-03-22T00:42:24.962Z,99.90
2019-03-22T00:44:53.794Z,99.90
2019-03-22T00:47:22.653Z,99.90
2019-03-22T00:49:51.502Z,99.90
2019-03-22T00:52:20.352Z,99.90
2019-03-22T00:54:49.180Z,99.90
2019-03-22T00:57:27.993Z,99.90
2019-03-22T00:59:46.876Z,99.90
2019-03-22T01:02:16.462Z,99.90
2019-03-22T01:04:45.301Z,99.90
2019-03-22T01:07:14.160Z,99.90
2019-03-22T01:09:43.012Z,99.90
2019-03-22T01:12:11.850Z,99.90
2019-03-22T01:14:41.447Z,99.90
2019-03-22T01:17:11.043Z,99.90
2019-03-22T01:19:40.656Z,99.90
2019-03-22T01:22:09.501Z,99.90
2019-03-22T01:24:38.352Z,99.90
2019-03-22T01:27:07.210Z,99.90
2019-03-22T01:29:36.061Z,99.90
2019-03-22T01:32:04.927Z,99.90
2019-03-22T01:34:33.774Z,99.90
2019-03-22T01:37:02.622Z,99.90
2019-03-22T01:39:31.464Z,99.90
2019-03-22T01:42:00.311Z,99.90
2019-03-22T01:44:29.881Z,99.90
2019-03-22T01:46:58.719Z,99.90
2019-03-22T01:49:27.557Z,99.90
2019-03-22T01:51:56.394Z,99.90
2019-03-22T01:54:25.247Z,99.90
2019-03-22T01:56:54.835Z,99.90
2019-03-22T01:59:24.430Z,99.90
2019-03-22T02:01:53.576Z,99.90
2019-03-22T02:04:22.422Z,99.90
2019-03-22T02:06:52.011Z,99.90
2019-03-22T02:11:51.865Z,99.90
2019-03-22T02:14:21.431Z,99.90
2019-03-22T02:16:50.284Z,99.90
2019-03-22T02:19:19.141Z,99.90
2019-03-22T02:21:48.719Z,99.90
2019-03-22T02:24:17.545Z,99.90
2019-03-22T02:26:47.394Z,99.90
2019-03-22T02:29:16.232Z,99.90
2019-03-22T02:31:45.835Z,99.90
2019-03-22T02:34:14.667Z,99.90
2019-03-22T02:36:43.511Z,99.90
2019-03-22T02:39:12.416Z,99.90
2019-03-22T02:41:41.456Z,99.90
2019-03-22T02:44:10.347Z,99.90
2019-03-22T02:46:39.879Z,99.90
2019-03-22T02:49:08.735Z,99.90
2019-03-22T02:51:37.569Z,99.90
2019-03-22T02:54:06.410Z,99.90
2019-03-22T02:56:35.265Z,99.90
2019-03-22T02:59:04.091Z,99.90
2019-03-22T03:01:32.936Z,99.90
2019-03-22T03:04:01.806Z,99.90
2019-03-22T03:06:30.614Z,99.90
2019-03-22T03:08:59.461Z,99.90
2019-03-22T03:11:28.539Z,99.90
2019-03-22T03:13:58.015Z,99.90
2019-03-22T03:16:26.860Z,99.90
2019-03-22T03:18:55.724Z,99.90
2019-03-22T03:21:24.556Z,99.90
2019-03-22T03:23:53.382Z,99.90
2019-03-22T03:26:22.266Z,99.90
2019-03-22T03:28:51.099Z,99.90
2019-03-22T03:31:20.014Z,99.90
2019-03-22T03:33:49.528Z,99.90
2019-03-22T03:36:18.339Z,99.90
2019-03-22T03:38:47.172Z,99.90
2019-03-22T03:41:16.015Z,99.90
2019-03-22T03:43:45.579Z,99.90
2019-03-22T03:46:14.748Z,99.90
2019-03-22T03:48:43.592Z,99.90
2019-03-22T03:51:13.179Z,99.90
2019-03-22T03:53:42.042Z,99.90
2019-03-22T03:56:10.862Z,99.90
2019-03-22T03:58:51.544Z,99.90
2019-03-22T04:01:08.531Z,99.90
2019-03-22T04:03:37.371Z,99.90
2019-03-22T04:06:06.232Z,99.90
2019-03-22T04:08:35.077Z,99.90
2019-03-22T04:11:03.922Z,99.90
2019-03-22T04:13:32.756Z,99.90
2019-03-22T04:16:01.630Z,99.90
2019-03-22T04:18:30.463Z,99.90
2019-03-22T04:21:00.125Z,99.90
2019-03-22T04:23:29.118Z,99.90
2019-03-22T04:25:57.968Z,99.90
2019-03-22T04:28:26.810Z,99.90
2019-03-22T04:30:55.647Z,99.90
2019-03-22T04:33:24.502Z,99.90
2019-03-22T04:35:53.327Z,99.90
2019-03-22T04:38:22.170Z,99.90
2019-03-22T04:40:51.010Z,99.90
2019-03-22T04:43:19.855Z,99.90
2019-03-22T04:45:48.680Z,99.90
2019-03-22T04:48:21.454Z,99.90
2019-03-22T04:50:50.360Z,99.90
2019-03-22T04:53:21.777Z,99.90
2019-03-22T04:55:48.050Z,99.90
2019-03-22T04:58:16.885Z,99.90
2019-03-22T05:00:45.715Z,99.90
2019-03-22T05:03:14.558Z,99.90
2019-03-22T05:05:44.385Z,99.90
2019-03-22T05:08:13.235Z,99.90
2019-03-22T05:10:42.106Z,99.90
2019-03-22T05:13:10.998Z,99.90
2019-03-22T05:15:39.804Z,99.90
2019-03-22T05:18:08.672Z,99.90
2019-03-22T05:20:37.508Z,99.90
2019-03-22T05:23:06.370Z,99.90
2019-03-22T05:25:35.222Z,99.90
2019-03-22T05:28:04.068Z,99.90
2019-03-22T05:33:22.748Z,99.90
2019-03-22T05:35:52.354Z,99.90
2019-03-22T05:38:21.934Z,99.90
2019-03-22T05:40:50.786Z,99.90
2019-03-22T05:43:19.623Z,99.90
2019-03-22T05:45:48.772Z,99.90
2019-03-22T05:48:17.619Z,99.90
2019-03-22T05:50:47.224Z,99.90
2019-03-22T05:53:16.344Z,99.90
2019-03-22T05:55:45.170Z,99.90
2019-03-22T05:58:14.370Z,99.90
2019-03-22T06:00:43.224Z,99.90
2019-03-22T06:03:12.202Z,99.90
2019-03-22T06:05:41.791Z,99.90
2019-03-22T06:08:10.663Z,99.90
2019-03-22T06:10:39.581Z,99.90
2019-03-22T06:13:08.395Z,99.90
2019-03-22T06:15:37.286Z,99.90
2019-03-22T06:18:06.922Z,99.90
2019-03-22T06:20:35.764Z,99.90
2019-03-22T06:23:04.619Z,99.90
2019-03-22T06:25:33.481Z,99.90
2019-03-22T06:28:02.326Z,99.90
2019-03-22T06:30:31.180Z,99.90
2019-03-22T06:33:00.144Z,99.90
2019-03-22T06:35:28.923Z,99.90
2019-03-22T06:37:58.494Z,99.90
2019-03-22T06:40:27.361Z,99.90
2019-03-22T06:42:56.462Z,99.90
2019-03-22T06:45:25.288Z,99.90
2019-03-22T06:47:54.148Z,99.90
2019-03-22T06:50:22.985Z,99.90
2019-03-22T06:52:52.112Z,99.90
2019-03-22T06:55:20.696Z,99.90
2019-03-22T06:57:49.606Z,99.90
2019-03-22T07:00:19.367Z,99.90
2019-03-22T07:02:48.210Z,99.90
2019-03-22T07:05:17.804Z,99.90
2019-03-22T07:07:46.662Z,99.90
2019-03-22T07:10:15.512Z,99.90
2019-03-22T07:12:44.384Z,99.90
2019-03-22T07:15:13.989Z,99.90
2019-03-22T07:17:43.857Z,99.90
2019-03-22T07:20:12.702Z,99.90
2019-03-22T07:22:41.542Z,99.90
2019-03-22T07:25:10.417Z,99.90
2019-03-22T07:27:39.324Z,99.90
2019-03-22T07:30:17.951Z,99.90
2019-03-22T07:32:37.798Z,99.90
2019-03-22T07:35:06.647Z,99.90
2019-03-22T07:37:35.524Z,99.90
2019-03-22T07:40:07.184Z,99.90
2019-03-22T07:42:36.034Z,99.90
2019-03-22T07:45:04.901Z,99.90
2019-03-22T07:47:33.755Z,99.90
2019-03-22T07:52:34.770Z,99.90
2019-03-22T07:55:03.687Z,99.90
2019-03-22T07:57:32.521Z,99.90
2019-03-22T08:00:01.387Z,99.90
2019-03-22T08:02:30.311Z,99.90
2019-03-22T08:04:59.158Z,99.90
2019-03-22T08:07:29.026Z,99.90
2019-03-22T08:09:58.170Z,99.90
2019-03-22T08:12:26.978Z,99.90
2019-03-22T08:14:55.856Z,99.90
2019-03-22T08:17:24.705Z,99.90
2019-03-22T08:19:53.573Z,99.90
2019-03-22T08:22:22.463Z,99.90
2019-03-22T08:24:51.386Z,99.90
2019-03-22T08:27:20.225Z,99.90
2019-03-22T08:29:49.046Z,99.90
2019-03-22T08:32:18.148Z,99.90
2019-03-22T08:34:47.903Z,99.90
2019-03-22T08:37:15.892Z,99.90
2019-03-22T08:39:46.395Z,99.90
2019-03-22T08:42:16.308Z,99.90
2019-03-22T08:44:45.132Z,99.90
2019-03-22T08:47:14.029Z,99.90
2019-03-22T08:49:43.008Z,99.90
2019-03-22T08:52:11.752Z,99.90
2019-03-22T08:54:40.568Z,99.90
2019-03-22T08:57:10.163Z,99.90
2019-03-22T08:59:39.015Z,99.90
2019-03-22T09:02:08.420Z,99.90
2019-03-22T09:04:36.743Z,99.90
2019-03-22T09:07:05.584Z,99.90
2019-03-22T09:09:41.433Z,99.90
2019-03-22T09:12:03.381Z,99.90
2019-03-22T09:14:32.179Z,99.90
2019-03-22T09:17:02.010Z,99.90
2019-03-22T09:19:30.901Z,99.90
2019-03-22T09:21:59.867Z,99.90
2019-03-22T09:24:38.644Z,99.90
2019-03-22T09:26:57.465Z,99.90
2019-03-22T09:29:27.354Z,99.90
2019-03-22T09:31:56.207Z,99.90
2019-03-22T09:34:33.742Z,99.90
2019-03-22T09:36:53.912Z,99.90
2019-03-22T09:39:22.777Z,99.90
2019-03-22T09:41:51.636Z,99.90
2019-03-22T09:44:20.489Z,99.90
2019-03-22T09:46:49.346Z,99.90
2019-03-22T09:49:18.188Z,99.90
2019-03-22T09:51:47.787Z,99.90
2019-03-22T09:54:16.679Z,99.90
2019-03-22T09:56:47.486Z,99.90
2019-03-22T09:59:15.104Z,99.90
2019-03-22T10:01:43.939Z,99.90
2019-03-22T10:04:12.792Z,99.90
2019-03-22T10:06:41.635Z,99.90
2019-03-22T10:09:10.482Z,99.90
2019-03-22T10:11:39.330Z,99.90
2019-03-22T10:14:09.796Z,99.90
2019-03-22T10:16:38.642Z,99.90
2019-03-22T10:19:08.274Z,99.90
2019-03-22T10:21:37.117Z,99.90
2019-03-22T10:24:06.007Z,99.90
2019-03-22T10:26:35.186Z,99.10
2019-03-22T10:29:06.888Z,99.90
2019-03-22T10:31:37.555Z,98.50
2019-03-22T10:34:02.538Z,92.00
2019-03-22T10:36:32.126Z,91.90
2019-03-22T10:39:01.732Z,91.10
2019-03-22T10:41:30.607Z,92.00
2019-03-22T10:43:59.438Z,92.10
2019-03-22T10:46:28.273Z,89.30
2019-03-22T10:48:57.127Z,96.00
2019-03-22T10:51:26.001Z,82.10
2019-03-22T10:53:55.700Z,91.50
2019-03-22T10:56:25.032Z,80.70
2019-03-22T10:58:53.313Z,76.60
2019-03-22T11:01:22.159Z,71.30
2019-03-22T11:03:51.131Z,69.60
2019-03-22T11:06:26.156Z,69.10
2019-03-22T11:08:49.723Z,66.40
2019-03-22T11:11:18.561Z,67.10
2019-03-22T11:13:47.753Z,70.40
2019-03-22T11:16:16.625Z,68.20
2019-03-22T11:18:45.453Z,63.80
2019-03-22T11:21:15.071Z,61.40
2019-03-22T11:23:44.949Z,61.90
2019-03-22T11:26:13.798Z,67.40
2019-03-22T11:28:42.653Z,68.50
2019-03-22T11:31:11.501Z,69.90
2019-03-22T11:33:40.357Z,69.70
2019-03-22T11:36:09.201Z,64.80
2019-03-22T11:38:38.053Z,60.10
2019-03-22T11:41:06.902Z,57.90
2019-03-22T11:43:35.755Z,55.30
2019-03-22T11:46:04.605Z,61.90
2019-03-22T11:48:33.475Z,57.40
2019-03-22T11:51:02.335Z,61.50
2019-03-22T11:53:31.210Z,58.20
2019-03-22T11:56:01.043Z,56.90
2019-03-22T11:58:29.927Z,56.70
2019-03-22T12:00:58.769Z,58.90
2019-03-22T12:03:27.618Z,62.10
2019-03-22T12:05:56.466Z,61.30
2019-03-22T12:08:25.587Z,59.50
2019-03-22T12:10:54.153Z,59.20
2019-03-22T12:13:23.001Z,61.90
2019-03-22T12:15:51.873Z,56.10
2019-03-22T12:18:20.741Z,61.10
2019-03-22T12:20:49.639Z,52.30
2019-03-22T12:23:18.478Z,50.10
2019-03-22T12:25:47.335Z,48.90
2019-03-22T12:28:16.195Z,49.80
2019-03-22T12:30:45.419Z,48.40
2019-03-22T12:33:14.233Z,49.20
2019-03-22T12:35:43.133Z,50.40
2019-03-22T12:38:12.695Z,48.20
2019-03-22T12:43:10.999Z,49.70
2019-03-22T12:45:39.854Z,46.60
2019-03-22T12:48:08.697Z,46.90
2019-03-22T12:50:37.605Z,52.40
2019-03-22T12:53:06.423Z,48.90
2019-03-22T12:55:35.267Z,46.80
2019-03-22T12:58:05.654Z,47.60
2019-03-22T13:00:34.505Z,45.90
2019-03-22T13:03:03.366Z,47.70
2019-03-22T13:05:32.962Z,48.00
2019-03-22T13:08:02.557Z,45.60
2019-03-22T13:10:31.729Z,49.20
2019-03-22T13:13:00.625Z,44.30
2019-03-22T13:15:29.481Z,44.10
2019-03-22T13:17:58.366Z,46.80
2019-03-22T13:20:27.188Z,45.90
2019-03-22T13:22:56.035Z,45.80
2019-03-22T13:25:24.877Z,47.20
2019-03-22T13:28:06.645Z,46.80
2019-03-22T13:30:35.495Z,47.90
2019-03-22T13:33:05.101Z,49.20
2019-03-22T13:35:34.687Z,47.40
2019-03-22T13:38:03.848Z,46.60
2019-03-22T13:40:33.479Z,45.70
2019-03-22T13:43:03.148Z,48.90
2019-03-22T13:45:31.989Z,50.90
2019-03-22T13:50:30.578Z,48.30
2019-03-22T13:52:59.686Z,46.90
2019-03-22T13:55:28.492Z,47.30
2019-03-22T13:57:58.078Z,47.70
2019-03-22T14:00:26.934Z,48.40
2019-03-22T14:03:02.893Z,47.90
2019-03-22T14:05:24.964Z,48.10
2019-03-22T14:07:53.830Z,48.00
2019-03-22T14:10:27.536Z,47.80
2019-03-22T14:12:56.381Z,46.60
2019-03-22T14:15:25.228Z,48.00
2019-03-22T14:17:54.144Z,47.10
2019-03-22T14:20:22.976Z,46.70
2019-03-22T14:22:53.831Z,46.90
2019-03-22T14:25:21.425Z,47.40
2019-03-22T14:27:50.274Z,47.00
2019-03-22T14:30:19.130Z,47.30
2019-03-22T14:32:47.967Z,47.30
2019-03-22T14:35:17.528Z,47.10
2019-03-22T14:37:46.640Z,46.90
2019-03-22T14:40:15.938Z,47.60
2019-03-22T14:42:44.351Z,48.20
2019-03-22T14:45:13.501Z,48.00
2019-03-22T14:47:42.346Z,46.90
2019-03-22T14:50:11.942Z,47.80
2019-03-22T14:52:40.825Z,47.50
2019-03-22T14:55:09.690Z,46.80
2019-03-22T14:57:48.073Z,47.60
2019-03-22T15:00:07.402Z,48.60
2019-03-22T15:02:37.002Z,47.60
2019-03-22T15:05:05.851Z,48.00
2019-03-22T15:07:35.045Z,48.60
2019-03-22T15:10:03.908Z,48.30
2019-03-22T15:12:32.758Z,48.00
2019-03-22T15:15:03.379Z,48.30
2019-03-22T15:17:32.443Z,49.10
2019-03-22T15:20:06.920Z,49.00
2019-03-22T15:22:38.311Z,49.00
2019-03-22T15:25:08.898Z,49.00
2019-03-22T15:27:39.632Z,50.70
2019-03-22T15:30:14.014Z,48.50
2019-03-22T15:32:42.863Z,48.80
2019-03-22T15:35:14.597Z,49.50
2019-03-22T15:37:44.467Z,49.70
2019-03-22T15:40:14.811Z,49.30
2019-03-22T15:42:43.678Z,50.70
2019-03-22T15:45:12.535Z,48.70
2019-03-22T15:47:41.362Z,48.90
2019-03-22T15:50:10.204Z,48.10
2019-03-22T15:52:39.839Z,47.70
2019-03-22T15:55:08.715Z,49.00
2019-03-22T15:57:37.576Z,50.50
2019-03-22T16:00:09.129Z,49.70
2019-03-22T16:02:37.982Z,49.20
2019-03-22T16:05:06.815Z,50.40
2019-03-22T16:07:35.652Z,49.40
2019-03-22T16:10:05.297Z,48.50
2019-03-22T16:12:34.144Z,48.50
2019-03-22T16:15:07.053Z,49.50
2019-03-22T16:17:35.808Z,50.60
2019-03-22T16:20:05.574Z,51.70
2019-03-22T16:22:34.418Z,51.60
2019-03-22T16:25:03.984Z,50.60
2019-03-22T16:27:33.791Z,51.10
2019-03-22T16:30:03.392Z,52.20
2019-03-22T16:32:32.279Z,53.10
2019-03-22T16:35:01.136Z,53.50
2019-03-22T16:37:29.980Z,53.00
2019-03-22T16:39:58.839Z,52.60
2019-03-22T16:42:27.716Z,52.50
2019-03-22T16:44:56.580Z,52.80
2019-03-22T16:47:25.443Z,53.30
2019-03-22T16:49:54.558Z,54.10
2019-03-22T16:52:23.405Z,54.70
2019-03-22T16:54:52.268Z,54.80
2019-03-22T16:57:21.149Z,55.40
2019-03-22T16:59:50.004Z,55.60
2019-03-22T17:02:18.857Z,55.90
2019-03-22T17:04:47.759Z,56.00
2019-03-22T17:09:45.999Z,56.70
2019-03-22T17:12:15.746Z,56.90
2019-03-22T17:14:44.609Z,56.60
2019-03-22T17:17:13.470Z,56.60
2019-03-22T17:19:42.338Z,57.10
2019-03-22T17:24:41.283Z,59.30
2019-03-22T17:27:10.132Z,60.10
2019-03-22T17:29:38.983Z,59.80
2019-03-22T17:32:07.853Z,59.40
2019-03-22T17:34:36.681Z,59.70
2019-03-22T17:37:05.532Z,59.00
2019-03-22T17:39:34.377Z,58.70
2019-03-22T17:42:03.214Z,59.40
2019-03-22T17:44:32.059Z,60.40
2019-03-22T17:47:00.888Z,60.80
2019-03-22T17:49:31.428Z,62.70
2019-03-22T17:52:00.253Z,64.90
2019-03-22T17:54:30.096Z,66.60
2019-03-22T17:56:58.936Z,69.90
2019-03-22T17:59:28.661Z,71.10
2019-03-22T18:01:57.785Z,72.30
2019-03-22T18:04:26.885Z,73.90
2019-03-22T18:09:21.597Z,77.40
2019-03-22T18:11:50.434Z,78.50
2019-03-22T18:14:19.435Z,80.10
2019-03-22T18:16:48.282Z,82.10
2019-03-22T18:19:17.562Z,84.00
2019-03-22T18:21:46.326Z,86.20
2019-03-22T18:24:15.169Z,88.60
2019-03-22T18:26:43.993Z,89.20
2019-03-22T18:29:13.121Z,91.00
2019-03-22T18:31:41.912Z,91.90
2019-03-22T18:34:10.749Z,92.20
2019-03-22T18:36:39.593Z,92.80
2019-03-22T18:39:08.440Z,93.20
2019-03-22T18:41:38.821Z,94.40
2019-03-22T18:44:07.659Z,94.90
2019-03-22T18:46:37.252Z,95.10
2019-03-22T18:49:06.084Z,95.40
2019-03-22T18:51:34.931Z,96.40
2019-03-22T18:54:04.536Z,97.00
2019-03-22T18:56:33.379Z,97.50
2019-03-22T18:59:02.226Z,97.70
2019-03-22T19:01:32.675Z,98.20
2019-03-22T19:04:01.534Z,99.20
2019-03-22T19:06:31.176Z,99.70
2019-03-22T19:08:59.981Z,99.60
2019-03-22T19:11:28.825Z,99.90
2019-03-22T19:13:58.423Z,99.90
2019-03-22T19:16:27.999Z,99.90
2019-03-22T19:18:57.073Z,99.90
2019-03-22T19:21:25.928Z,99.90
2019-03-22T19:23:55.502Z,99.90
2019-03-22T19:26:24.341Z,99.90
2019-03-22T19:28:53.171Z,99.90
2019-03-22T19:31:22.852Z,99.90
2019-03-22T19:33:51.585Z,99.90
2019-03-22T19:36:20.465Z,99.90
2019-03-22T19:38:49.929Z,99.90
2019-03-22T19:41:18.815Z,99.90
2019-03-22T19:43:47.671Z,99.90
2019-03-22T19:46:16.511Z,99.90
2019-03-22T19:48:45.366Z,99.90
2019-03-22T19:51:14.244Z,99.90
2019-03-22T19:53:43.104Z,99.90
2019-03-22T19:56:11.967Z,99.90
2019-03-22T19:58:40.843Z,99.90
2019-03-22T20:01:10.665Z,99.90
2019-03-22T20:03:40.317Z,99.90
2019-03-22T20:06:09.161Z,99.90
2019-03-22T20:08:38.030Z,99.90
2019-03-22T20:11:06.883Z,99.90
2019-03-22T20:13:35.731Z,99.90
2019-03-22T20:16:04.589Z,99.90
2019-03-22T20:18:33.451Z,99.90
2019-03-22T20:21:02.321Z,99.90
2019-03-22T20:23:31.186Z,99.90
2019-03-22T20:26:00.277Z,99.90
2019-03-22T20:28:29.211Z,99.90
2019-03-22T20:30:58.069Z,99.90
2019-03-22T20:33:26.929Z,99.90
2019-03-22T20:35:55.790Z,99.90
2019-03-22T20:38:25.387Z,99.90
2019-03-22T20:40:54.247Z,99.90
2019-03-22T20:43:23.115Z,99.90
2019-03-22T20:45:51.988Z,99.90
2019-03-22T20:48:20.853Z,99.90
2019-03-22T20:50:50.466Z,99.90
2019-03-22T20:53:20.104Z,99.90
2019-03-22T20:55:48.938Z,99.90
2019-03-22T20:58:17.810Z,99.90
2019-03-22T21:00:46.660Z,99.90
2019-03-22T21:03:16.259Z,99.90
2019-03-22T21:05:45.116Z,99.90
2019-03-22T21:08:13.962Z,99.90
2019-03-22T21:10:42.865Z,99.90
2019-03-22T21:13:11.746Z,99.90
2019-03-22T21:15:40.602Z,99.90
2019-03-22T21:18:09.460Z,99.90
2019-03-22T21:20:38.386Z,99.90
2019-03-22T21:23:07.307Z,99.90
2019-03-22T21:25:36.952Z,99.90
2019-03-22T21:28:05.797Z,99.90
2019-03-22T21:30:34.657Z,99.90
2019-03-22T21:33:04.262Z,99.90
2019-03-22T21:35:37.291Z,99.90
2019-03-22T21:38:10.899Z,99.90
2019-03-22T21:40:32.439Z,99.90
2019-03-22T21:43:01.304Z,99.90
2019-03-22T21:45:30.143Z,99.90
2019-03-22T21:47:59.000Z,99.90
2019-03-22T21:50:27.849Z,99.90
2019-03-22T21:52:56.690Z,99.90
2019-03-22T21:55:25.553Z,99.90
2019-03-22T21:57:54.388Z,99.90
2019-03-22T22:00:23.250Z,99.90
2019-03-22T22:02:52.100Z,99.90
2019-03-22T22:05:20.958Z,99.90
2019-03-22T22:07:50.550Z,99.90
2019-03-22T22:10:19.397Z,99.90
2019-03-22T22:12:48.273Z,99.90
2019-03-22T22:15:17.092Z,99.90
2019-03-22T22:17:45.958Z,99.90
2019-03-22T22:20:14.810Z,99.90
2019-03-22T22:22:44.414Z,99.90
2019-03-22T22:25:13.260Z,99.90
2019-03-22T22:27:54.796Z,99.90
2019-03-22T22:30:23.644Z,99.90
2019-03-22T22:32:52.498Z,99.90
2019-03-22T22:35:21.356Z,99.90
2019-03-22T22:37:50.227Z,99.90
2019-03-22T22:40:19.087Z,99.90
2019-03-22T22:42:48.722Z,99.90
2019-03-22T22:45:17.558Z,99.90
2019-03-22T22:47:46.420Z,99.90
2019-03-22T22:50:15.287Z,99.90
2019-03-22T22:52:44.143Z,99.90
2019-03-22T22:55:13.748Z,99.90
2019-03-22T22:57:43.345Z,99.90
2019-03-22T23:00:12.215Z,99.90
2019-03-22T23:02:41.089Z,99.90
2019-03-22T23:05:09.976Z,99.90
2019-03-22T23:07:38.831Z,99.90
2019-03-22T23:10:08.450Z,99.90
2019-03-22T23:12:37.292Z,99.90
2019-03-22T23:15:06.139Z,99.90
2019-03-22T23:17:35.992Z,99.90
2019-03-22T23:20:05.310Z,99.90
2019-03-22T23:22:34.904Z,99.90
2019-03-22T23:25:03.779Z,99.90
2019-03-22T23:27:32.646Z,99.90
2019-03-22T23:30:01.507Z,99.90
2019-03-22T23:32:30.350Z,99.90
2019-03-22T23:34:59.476Z,99.90
2019-03-22T23:37:28.058Z,99.90
2019-03-22T23:39:57.659Z,99.90
2019-03-22T23:42:26.518Z,99.90
2019-03-22T23:44:55.377Z,99.90
2019-03-22T23:47:24.246Z,99.90
2019-03-22T23:49:53.084Z,99.90
2019-03-22T23:52:21.925Z,99.90
2019-03-22T23:54:50.771Z,99.90
2019-03-22T23:57:19.606Z,99.90
2019-03-22T23:59:48.438Z,99.90
